Lexington, Indiana
Current Conditions -  °F | °C
As of 2:53 PM on Friday 24 Oct 2014 (Local Time) from KLOU Reporting Station
Clear Clear  
Wind Chill: 18°   Ceiling: Unl
Heat Index: 18°   Visibility: 10mi
Dew Point:   Wind: 5mph
Humidity: 38%   Direction: 220°SW
Pressure: 30.08"   Gusts: NA
Location:  38.65°N, 85.63°W
Report Text: KLOU 241853Z 22004KT 10SM CLR 18/03 A3008 RMK AO2 SLP184 T01780033
Loading
Personal Weather Stations






























Interactive Weather Map
Tropical Storm Tracking
New forecast layout! Learn more

10-Day Weather Forecast

Advertisements
Track Severe Weather on mobile